シドニー の空港の天気 - METARとTAF

シドニー国際空港 ( YSSY / SYD ) - オーストラリア ニューサウスウェールズ州、Mascot
飛行場実況気象(Metar)
観測時間09/26 19:00 AEST (09/26 09:00 UTC)
風向・風速東 6m/s
視程10km以上
天気現象弱いしゅう雨
全天の4割程度の雲 雲底高度 820m
全天の4割程度の雲 雲底高度 980m
全天の8割程度の雲 雲底高度 1220m
気温13℃
湿度72%
気圧1027hPa
METARYSSY 260900Z 10012KT 9999 -SHRA SCT027 SCT032 BKN040 13/08 Q1027
過去の天気等 Google飛行場航空写真 Wunderground天気予報

過去48時間のMETAR

飛行場予報(TAF)
発表時間: 9/26 18:14 AEST (9/26 08:14 UTC)
予報対象時間: 26日19時 AEST ~ 27日22時 AEST
風向・風速東南東 6m/s
視程10km以上
全天の4割程度の雲 雲底高度 1220m
27日0時 AEST から
風向・風速北西 3m/s
視程10km以上
全天の4割程度の雲 雲底高度 910m
27日9時 AEST から
風向・風速北 5m/s
視程10km以上
少しの雲 雲底高度 1520m
TAF YSSY 260814Z 2609/2712 12012KT 9999 SCT040
FM261400 32006KT 9999 SCT030
FM262300 01010KT 9999 FEW050